sensor_id;sensor_type;location;lat;lon;timestamp;P1;durP1;ratioP1;P2;durP2;ratioP2
75012;SDS011;63567;49.956;20.130;2024-02-14T00:02:07;6.43;;;3.75;;
75012;SDS011;63567;49.956;20.130;2024-02-14T00:04:32;7.65;;;3.70;;
75012;SDS011;63567;49.956;20.130;2024-02-14T00:06:57;8.37;;;4.80;;
75012;SDS011;63567;49.956;20.130;2024-02-14T00:09:22;11.30;;;5.50;;
75012;SDS011;63567;49.956;20.130;2024-02-14T00:11:48;12.03;;;5.83;;
75012;SDS011;63567;49.956;20.130;2024-02-14T00:14:13;11.07;;;6.03;;
75012;SDS011;63567;49.956;20.130;2024-02-14T00:16:38;12.37;;;6.73;;
75012;SDS011;63567;49.956;20.130;2024-02-14T00:19:04;13.02;;;6.47;;
75012;SDS011;63567;49.956;20.130;2024-02-14T00:21:29;12.60;;;7.53;;
75012;SDS011;63567;49.956;20.130;2024-02-14T00:23:54;15.60;;;8.57;;
75012;SDS011;63567;49.956;20.130;2024-02-14T00:26:20;16.33;;;8.97;;
75012;SDS011;63567;49.956;20.130;2024-02-14T00:28:45;16.83;;;8.47;;
75012;SDS011;63567;49.956;20.130;2024-02-14T00:31:10;18.10;;;9.43;;
75012;SDS011;63567;49.956;20.130;2024-02-14T00:33:35;16.33;;;9.60;;
75012;SDS011;63567;49.956;20.130;2024-02-14T00:36:01;19.00;;;10.87;;
75012;SDS011;63567;49.956;20.130;2024-02-14T00:38:26;21.63;;;11.03;;
75012;SDS011;63567;49.956;20.130;2024-02-14T00:40:51;19.07;;;10.03;;
75012;SDS011;63567;49.956;20.130;2024-02-14T00:43:16;18.83;;;10.20;;
75012;SDS011;63567;49.956;20.130;2024-02-14T00:45:42;17.07;;;9.57;;
75012;SDS011;63567;49.956;20.130;2024-02-14T00:48:07;20.80;;;10.67;;
75012;SDS011;63567;49.956;20.130;2024-02-14T00:50:33;20.10;;;10.73;;
75012;SDS011;63567;49.956;20.130;2024-02-14T00:53:02;21.90;;;11.45;;
75012;SDS011;63567;49.956;20.130;2024-02-14T00:55:28;21.05;;;11.23;;
75012;SDS011;63567;49.956;20.130;2024-02-14T00:57:53;22.97;;;12.30;;
75012;SDS011;63567;49.956;20.130;2024-02-14T01:00:19;20.67;;;11.45;;
75012;SDS011;63567;49.956;20.130;2024-02-14T01:02:44;19.17;;;10.23;;
75012;SDS011;63567;49.956;20.130;2024-02-14T01:05:09;21.87;;;10.67;;
75012;SDS011;63567;49.956;20.130;2024-02-14T01:07:35;19.42;;;10.43;;
75012;SDS011;63567;49.956;20.130;2024-02-14T01:10:01;21.25;;;10.90;;
75012;SDS011;63567;49.956;20.130;2024-02-14T01:12:26;18.90;;;10.63;;
75012;SDS011;63567;49.956;20.130;2024-02-14T01:14:51;21.53;;;11.70;;
75012;SDS011;63567;49.956;20.130;2024-02-14T01:17:17;21.93;;;11.37;;
75012;SDS011;63567;49.956;20.130;2024-02-14T01:19:42;20.70;;;10.73;;
75012;SDS011;63567;49.956;20.130;2024-02-14T01:22:08;22.25;;;11.57;;
75012;SDS011;63567;49.956;20.130;2024-02-14T01:24:33;22.17;;;10.93;;
75012;SDS011;63567;49.956;20.130;2024-02-14T01:26:59;22.55;;;10.60;;
75012;SDS011;63567;49.956;20.130;2024-02-14T01:29:25;20.00;;;10.40;;
75012;SDS011;63567;49.956;20.130;2024-02-14T01:31:50;17.48;;;9.73;;
75012;SDS011;63567;49.956;20.130;2024-02-14T01:34:15;20.53;;;10.97;;
75012;SDS011;63567;49.956;20.130;2024-02-14T01:36:41;21.10;;;10.83;;
75012;SDS011;63567;49.956;20.130;2024-02-14T01:39:06;19.37;;;10.57;;
75012;SDS011;63567;49.956;20.130;2024-02-14T01:41:35;20.38;;;11.40;;
75012;SDS011;63567;49.956;20.130;2024-02-14T01:44:01;18.23;;;10.33;;
75012;SDS011;63567;49.956;20.130;2024-02-14T01:46:26;18.70;;;9.80;;
75012;SDS011;63567;49.956;20.130;2024-02-14T01:48:51;18.20;;;9.70;;
75012;SDS011;63567;49.956;20.130;2024-02-14T01:51:17;19.55;;;10.73;;
75012;SDS011;63567;49.956;20.130;2024-02-14T01:53:46;17.98;;;9.73;;
75012;SDS011;63567;49.956;20.130;2024-02-14T01:56:12;16.43;;;8.67;;
75012;SDS011;63567;49.956;20.130;2024-02-14T01:58:37;16.45;;;8.88;;
75012;SDS011;63567;49.956;20.130;2024-02-14T02:01:03;20.30;;;9.15;;
75012;SDS011;63567;49.956;20.130;2024-02-14T02:03:29;17.08;;;9.18;;
75012;SDS011;63567;49.956;20.130;2024-02-14T02:05:58;16.40;;;9.07;;
75012;SDS011;63567;49.956;20.130;2024-02-14T02:08:23;17.00;;;9.90;;
75012;SDS011;63567;49.956;20.130;2024-02-14T02:10:48;18.70;;;10.03;;
75012;SDS011;63567;49.956;20.130;2024-02-14T02:13:14;18.85;;;9.93;;
75012;SDS011;63567;49.956;20.130;2024-02-14T02:15:40;20.70;;;10.70;;
75012;SDS011;63567;49.956;20.130;2024-02-14T02:18:06;18.65;;;9.43;;
75012;SDS011;63567;49.956;20.130;2024-02-14T02:20:31;17.15;;;9.48;;
75012;SDS011;63567;49.956;20.130;2024-02-14T02:22:57;18.98;;;10.65;;
75012;SDS011;63567;49.956;20.130;2024-02-14T02:25:23;16.92;;;8.65;;
75012;SDS011;63567;49.956;20.130;2024-02-14T02:27:49;17.33;;;9.57;;
75012;SDS011;63567;49.956;20.130;2024-02-14T02:30:15;18.23;;;9.03;;
75012;SDS011;63567;49.956;20.130;2024-02-14T02:32:41;17.97;;;10.07;;
75012;SDS011;63567;49.956;20.130;2024-02-14T02:35:07;17.60;;;9.20;;
75012;SDS011;63567;49.956;20.130;2024-02-14T02:37:34;19.85;;;10.45;;
75012;SDS011;63567;49.956;20.130;2024-02-14T02:40:00;18.17;;;9.85;;
75012;SDS011;63567;49.956;20.130;2024-02-14T02:42:25;17.10;;;9.87;;
75012;SDS011;63567;49.956;20.130;2024-02-14T02:44:50;21.87;;;9.47;;
75012;SDS011;63567;49.956;20.130;2024-02-14T02:47:16;17.20;;;9.13;;
75012;SDS011;63567;49.956;20.130;2024-02-14T02:49:42;18.95;;;10.82;;
75012;SDS011;63567;49.956;20.130;2024-02-14T02:52:09;20.20;;;10.00;;
75012;SDS011;63567;49.956;20.130;2024-02-14T02:54:35;17.95;;;10.10;;
75012;SDS011;63567;49.956;20.130;2024-02-14T02:57:01;21.60;;;11.20;;
75012;SDS011;63567;49.956;20.130;2024-02-14T02:59:28;18.70;;;9.23;;
75012;SDS011;63567;49.956;20.130;2024-02-14T03:01:54;17.95;;;9.70;;
75012;SDS011;63567;49.956;20.130;2024-02-14T03:04:20;19.88;;;9.73;;
75012;SDS011;63567;49.956;20.130;2024-02-14T03:06:45;18.27;;;9.88;;
75012;SDS011;63567;49.956;20.130;2024-02-14T03:09:10;16.97;;;9.63;;
75012;SDS011;63567;49.956;20.130;2024-02-14T03:11:37;18.50;;;9.52;;
75012;SDS011;63567;49.956;20.130;2024-02-14T03:14:03;20.38;;;10.32;;
75012;SDS011;63567;49.956;20.130;2024-02-14T03:16:28;18.08;;;8.73;;
75012;SDS011;63567;49.956;20.130;2024-02-14T03:18:54;17.35;;;8.40;;
75012;SDS011;63567;49.956;20.130;2024-02-14T03:21:19;16.03;;;8.53;;
75012;SDS011;63567;49.956;20.130;2024-02-14T03:23:45;15.00;;;8.13;;
75012;SDS011;63567;49.956;20.130;2024-02-14T03:26:10;16.02;;;8.25;;
75012;SDS011;63567;49.956;20.130;2024-02-14T03:28:36;17.37;;;8.13;;
75012;SDS011;63567;49.956;20.130;2024-02-14T03:31:01;13.93;;;7.50;;
75012;SDS011;63567;49.956;20.130;2024-02-14T03:33:26;18.33;;;8.43;;
75012;SDS011;63567;49.956;20.130;2024-02-14T03:35:53;16.02;;;8.07;;
75012;SDS011;63567;49.956;20.130;2024-02-14T03:38:28;16.87;;;8.03;;
75012;SDS011;63567;49.956;20.130;2024-02-14T03:40:54;15.52;;;8.02;;
75012;SDS011;63567;49.956;20.130;2024-02-14T03:43:19;16.27;;;8.18;;
75012;SDS011;63567;49.956;20.130;2024-02-14T03:45:45;17.47;;;7.93;;
75012;SDS011;63567;49.956;20.130;2024-02-14T03:48:11;18.40;;;9.43;;
75012;SDS011;63567;49.956;20.130;2024-02-14T03:50:38;14.25;;;8.10;;
75012;SDS011;63567;49.956;20.130;2024-02-14T03:53:04;16.73;;;8.90;;
75012;SDS011;63567;49.956;20.130;2024-02-14T03:55:29;18.20;;;8.27;;
75012;SDS011;63567;49.956;20.130;2024-02-14T03:57:55;15.93;;;7.57;;
75012;SDS011;63567;49.956;20.130;2024-02-14T04:00:21;16.33;;;7.82;;
75012;SDS011;63567;49.956;20.130;2024-02-14T04:02:47;13.90;;;7.97;;
75012;SDS011;63567;49.956;20.130;2024-02-14T04:05:13;14.93;;;7.35;;
75012;SDS011;63567;49.956;20.130;2024-02-14T04:07:39;14.65;;;7.60;;
75012;SDS011;63567;49.956;20.130;2024-02-14T04:10:05;13.57;;;6.70;;
75012;SDS011;63567;49.956;20.130;2024-02-14T04:12:30;13.40;;;7.43;;
75012;SDS011;63567;49.956;20.130;2024-02-14T04:14:56;13.13;;;6.63;;
75012;SDS011;63567;49.956;20.130;2024-02-14T04:17:21;14.93;;;7.30;;
75012;SDS011;63567;49.956;20.130;2024-02-14T04:19:46;13.43;;;7.07;;
75012;SDS011;63567;49.956;20.130;2024-02-14T04:22:11;14.07;;;6.77;;
75012;SDS011;63567;49.956;20.130;2024-02-14T04:24:37;13.27;;;7.07;;
75012;SDS011;63567;49.956;20.130;2024-02-14T04:27:02;13.53;;;6.90;;
75012;SDS011;63567;49.956;20.130;2024-02-14T04:29:29;13.88;;;6.70;;
75012;SDS011;63567;49.956;20.130;2024-02-14T04:31:55;12.55;;;6.50;;
75012;SDS011;63567;49.956;20.130;2024-02-14T04:34:21;12.07;;;6.63;;
75012;SDS011;63567;49.956;20.130;2024-02-14T04:36:46;12.23;;;6.50;;
75012;SDS011;63567;49.956;20.130;2024-02-14T04:39:11;13.20;;;6.03;;
75012;SDS011;63567;49.956;20.130;2024-02-14T04:41:37;14.23;;;6.90;;
75012;SDS011;63567;49.956;20.130;2024-02-14T04:44:04;12.75;;;6.13;;
75012;SDS011;63567;49.956;20.130;2024-02-14T04:46:31;13.32;;;6.68;;
75012;SDS011;63567;49.956;20.130;2024-02-14T04:48:57;12.13;;;5.75;;
75012;SDS011;63567;49.956;20.130;2024-02-14T04:51:22;12.53;;;5.77;;
75012;SDS011;63567;49.956;20.130;2024-02-14T04:53:48;12.07;;;6.03;;
75012;SDS011;63567;49.956;20.130;2024-02-14T04:56:13;12.00;;;6.45;;
75012;SDS011;63567;49.956;20.130;2024-02-14T04:58:38;12.93;;;5.80;;
75012;SDS011;63567;49.956;20.130;2024-02-14T05:01:03;12.50;;;6.90;;
75012;SDS011;63567;49.956;20.130;2024-02-14T05:03:29;14.27;;;6.67;;
75012;SDS011;63567;49.956;20.130;2024-02-14T05:05:54;11.60;;;6.17;;
75012;SDS011;63567;49.956;20.130;2024-02-14T05:08:19;10.27;;;5.93;;
75012;SDS011;63567;49.956;20.130;2024-02-14T05:10:45;10.77;;;5.90;;
75012;SDS011;63567;49.956;20.130;2024-02-14T05:13:11;11.23;;;6.40;;
75012;SDS011;63567;49.956;20.130;2024-02-14T05:15:36;10.85;;;5.90;;
75012;SDS011;63567;49.956;20.130;2024-02-14T05:18:01;11.37;;;5.80;;
75012;SDS011;63567;49.956;20.130;2024-02-14T05:20:27;10.65;;;5.97;;
75012;SDS011;63567;49.956;20.130;2024-02-14T05:22:53;11.27;;;6.00;;
75012;SDS011;63567;49.956;20.130;2024-02-14T05:25:19;10.05;;;5.45;;
75012;SDS011;63567;49.956;20.130;2024-02-14T05:27:44;12.50;;;5.90;;
75012;SDS011;63567;49.956;20.130;2024-02-14T05:30:12;12.25;;;5.85;;
75012;SDS011;63567;49.956;20.130;2024-02-14T05:32:37;11.52;;;5.25;;
75012;SDS011;63567;49.956;20.130;2024-02-14T05:35:02;12.63;;;6.40;;
75012;SDS011;63567;49.956;20.130;2024-02-14T05:37:30;11.80;;;5.75;;
75012;SDS011;63567;49.956;20.130;2024-02-14T05:39:56;10.23;;;5.20;;
75012;SDS011;63567;49.956;20.130;2024-02-14T05:42:21;9.40;;;4.87;;
75012;SDS011;63567;49.956;20.130;2024-02-14T05:44:47;10.65;;;5.25;;
75012;SDS011;63567;49.956;20.130;2024-02-14T05:47:13;10.57;;;5.40;;
75012;SDS011;63567;49.956;20.130;2024-02-14T05:49:38;8.93;;;5.20;;
75012;SDS011;63567;49.956;20.130;2024-02-14T05:52:05;10.63;;;5.00;;
75012;SDS011;63567;49.956;20.130;2024-02-14T05:54:31;9.13;;;4.45;;
75012;SDS011;63567;49.956;20.130;2024-02-14T05:56:56;9.47;;;4.70;;
75012;SDS011;63567;49.956;20.130;2024-02-14T05:59:22;9.00;;;4.55;;
75012;SDS011;63567;49.956;20.130;2024-02-14T06:01:48;10.63;;;5.10;;
75012;SDS011;63567;49.956;20.130;2024-02-14T06:04:13;10.13;;;5.60;;
75012;SDS011;63567;49.956;20.130;2024-02-14T06:06:38;12.93;;;5.67;;
75012;SDS011;63567;49.956;20.130;2024-02-14T06:09:03;10.33;;;4.77;;
75012;SDS011;63567;49.956;20.130;2024-02-14T06:11:34;9.27;;;5.00;;
75012;SDS011;63567;49.956;20.130;2024-02-14T06:14:00;10.65;;;5.45;;
75012;SDS011;63567;49.956;20.130;2024-02-14T06:16:25;10.77;;;5.03;;
75012;SDS011;63567;49.956;20.130;2024-02-14T06:18:50;9.23;;;5.03;;
75012;SDS011;63567;49.956;20.130;2024-02-14T06:21:15;10.57;;;5.77;;
75012;SDS011;63567;49.956;20.130;2024-02-14T06:23:41;13.30;;;6.07;;
75012;SDS011;63567;49.956;20.130;2024-02-14T06:26:06;13.83;;;6.90;;
75012;SDS011;63567;49.956;20.130;2024-02-14T06:28:32;13.30;;;6.00;;
75012;SDS011;63567;49.956;20.130;2024-02-14T06:30:57;12.00;;;5.67;;
75012;SDS011;63567;49.956;20.130;2024-02-14T06:33:22;9.45;;;4.95;;
75012;SDS011;63567;49.956;20.130;2024-02-14T06:35:48;8.55;;;4.25;;
75012;SDS011;63567;49.956;20.130;2024-02-14T06:38:13;10.00;;;5.17;;
75012;SDS011;63567;49.956;20.130;2024-02-14T06:40:38;8.70;;;4.93;;
75012;SDS011;63567;49.956;20.130;2024-02-14T06:43:05;9.88;;;4.88;;
75012;SDS011;63567;49.956;20.130;2024-02-14T06:45:31;8.82;;;4.82;;
75012;SDS011;63567;49.956;20.130;2024-02-14T06:47:57;9.75;;;4.35;;
75012;SDS011;63567;49.956;20.130;2024-02-14T06:50:22;9.30;;;4.27;;
75012;SDS011;63567;49.956;20.130;2024-02-14T06:52:50;8.38;;;3.53;;
75012;SDS011;63567;49.956;20.130;2024-02-14T06:55:16;8.90;;;4.22;;
75012;SDS011;63567;49.956;20.130;2024-02-14T06:57:41;7.27;;;3.77;;
75012;SDS011;63567;49.956;20.130;2024-02-14T07:00:06;9.93;;;4.57;;
75012;SDS011;63567;49.956;20.130;2024-02-14T07:02:33;8.15;;;4.53;;
75012;SDS011;63567;49.956;20.130;2024-02-14T07:04:59;9.10;;;4.10;;
75012;SDS011;63567;49.956;20.130;2024-02-14T07:07:24;8.85;;;3.92;;
75012;SDS011;63567;49.956;20.130;2024-02-14T07:09:50;7.93;;;4.63;;
75012;SDS011;63567;49.956;20.130;2024-02-14T07:12:16;8.00;;;4.30;;
75012;SDS011;63567;49.956;20.130;2024-02-14T07:14:41;7.30;;;3.77;;
75012;SDS011;63567;49.956;20.130;2024-02-14T07:17:06;8.57;;;4.00;;
75012;SDS011;63567;49.956;20.130;2024-02-14T07:19:32;7.40;;;3.75;;
75012;SDS011;63567;49.956;20.130;2024-02-14T07:21:57;8.43;;;4.20;;
75012;SDS011;63567;49.956;20.130;2024-02-14T07:24:22;7.30;;;4.43;;
75012;SDS011;63567;49.956;20.130;2024-02-14T07:26:48;7.40;;;4.03;;
75012;SDS011;63567;49.956;20.130;2024-02-14T07:29:13;7.07;;;3.67;;
75012;SDS011;63567;49.956;20.130;2024-02-14T07:31:38;7.43;;;3.57;;
75012;SDS011;63567;49.956;20.130;2024-02-14T07:34:03;6.50;;;3.60;;
75012;SDS011;63567;49.956;20.130;2024-02-14T07:36:29;7.28;;;3.80;;
75012;SDS011;63567;49.956;20.130;2024-02-14T07:38:57;9.30;;;4.50;;
75012;SDS011;63567;49.956;20.130;2024-02-14T07:41:22;9.10;;;4.10;;
75012;SDS011;63567;49.956;20.130;2024-02-14T07:43:47;7.65;;;4.47;;
75012;SDS011;63567;49.956;20.130;2024-02-14T07:46:17;8.27;;;4.77;;
75012;SDS011;63567;49.956;20.130;2024-02-14T07:48:44;7.05;;;4.30;;
75012;SDS011;63567;49.956;20.130;2024-02-14T07:51:09;8.48;;;4.38;;
75012;SDS011;63567;49.956;20.130;2024-02-14T07:53:34;8.57;;;3.90;;
75012;SDS011;63567;49.956;20.130;2024-02-14T07:56:00;7.30;;;3.58;;
75012;SDS011;63567;49.956;20.130;2024-02-14T07:58:25;7.97;;;3.88;;
75012;SDS011;63567;49.956;20.130;2024-02-14T08:00:51;7.17;;;3.20;;
75012;SDS011;63567;49.956;20.130;2024-02-14T08:03:16;5.97;;;3.10;;
75012;SDS011;63567;49.956;20.130;2024-02-14T08:05:41;7.10;;;3.63;;
75012;SDS011;63567;49.956;20.130;2024-02-14T08:08:07;4.78;;;2.97;;
75012;SDS011;63567;49.956;20.130;2024-02-14T08:10:33;5.68;;;3.00;;
75012;SDS011;63567;49.956;20.130;2024-02-14T08:12:58;4.80;;;2.70;;
75012;SDS011;63567;49.956;20.130;2024-02-14T08:15:23;5.45;;;3.10;;
75012;SDS011;63567;49.956;20.130;2024-02-14T08:17:49;6.90;;;3.03;;
75012;SDS011;63567;49.956;20.130;2024-02-14T08:20:14;7.00;;;2.78;;
75012;SDS011;63567;49.956;20.130;2024-02-14T08:22:39;4.10;;;2.23;;
75012;SDS011;63567;49.956;20.130;2024-02-14T08:25:05;5.53;;;2.20;;
75012;SDS011;63567;49.956;20.130;2024-02-14T08:27:30;5.57;;;2.67;;
75012;SDS011;63567;49.956;20.130;2024-02-14T08:29:56;4.20;;;2.33;;
75012;SDS011;63567;49.956;20.130;2024-02-14T08:32:22;4.25;;;2.10;;
75012;SDS011;63567;49.956;20.130;2024-02-14T08:34:47;5.43;;;2.30;;
75012;SDS011;63567;49.956;20.130;2024-02-14T08:37:13;5.03;;;2.10;;
75012;SDS011;63567;49.956;20.130;2024-02-14T08:39:38;3.93;;;1.93;;
75012;SDS011;63567;49.956;20.130;2024-02-14T08:42:03;2.57;;;1.50;;
75012;SDS011;63567;49.956;20.130;2024-02-14T08:44:32;3.08;;;1.40;;
75012;SDS011;63567;49.956;20.130;2024-02-14T08:46:58;3.08;;;1.23;;
75012;SDS011;63567;49.956;20.130;2024-02-14T08:49:24;2.70;;;1.03;;
75012;SDS011;63567;49.956;20.130;2024-02-14T08:51:49;2.57;;;0.80;;
75012;SDS011;63567;49.956;20.130;2024-02-14T08:54:15;2.67;;;0.93;;
75012;SDS011;63567;49.956;20.130;2024-02-14T08:56:41;4.03;;;1.00;;
75012;SDS011;63567;49.956;20.130;2024-02-14T08:59:06;2.53;;;0.80;;
75012;SDS011;63567;49.956;20.130;2024-02-14T09:01:31;1.95;;;0.50;;
75012;SDS011;63567;49.956;20.130;2024-02-14T09:03:57;1.92;;;0.60;;
75012;SDS011;63567;49.956;20.130;2024-02-14T09:06:23;2.17;;;0.60;;
75012;SDS011;63567;49.956;20.130;2024-02-14T09:08:51;1.45;;;0.55;;
75012;SDS011;63567;49.956;20.130;2024-02-14T09:11:16;2.28;;;0.70;;
75012;SDS011;63567;49.956;20.130;2024-02-14T09:13:42;2.63;;;1.00;;
75012;SDS011;63567;49.956;20.130;2024-02-14T09:16:10;2.83;;;0.93;;
75012;SDS011;63567;49.956;20.130;2024-02-14T09:18:36;2.17;;;1.20;;
75012;SDS011;63567;49.956;20.130;2024-02-14T09:21:02;2.08;;;1.00;;
75012;SDS011;63567;49.956;20.130;2024-02-14T09:23:30;2.10;;;1.20;;
75012;SDS011;63567;49.956;20.130;2024-02-14T09:25:56;3.10;;;1.35;;
75012;SDS011;63567;49.956;20.130;2024-02-14T09:28:22;2.53;;;1.00;;
75012;SDS011;63567;49.956;20.130;2024-02-14T09:30:47;2.83;;;1.30;;
75012;SDS011;63567;49.956;20.130;2024-02-14T09:33:13;2.90;;;1.30;;
75012;SDS011;63567;49.956;20.130;2024-02-14T09:35:38;1.97;;;1.17;;
75012;SDS011;63567;49.956;20.130;2024-02-14T09:38:09;2.30;;;1.17;;
75012;SDS011;63567;49.956;20.130;2024-02-14T09:40:34;3.43;;;1.67;;
75012;SDS011;63567;49.956;20.130;2024-02-14T09:43:00;4.32;;;1.25;;
75012;SDS011;63567;49.956;20.130;2024-02-14T09:45:29;3.42;;;1.60;;
75012;SDS011;63567;49.956;20.130;2024-02-14T09:47:58;2.80;;;1.42;;
75012;SDS011;63567;49.956;20.130;2024-02-14T09:50:23;2.85;;;1.23;;
75012;SDS011;63567;49.956;20.130;2024-02-14T09:52:50;2.40;;;1.48;;
75012;SDS011;63567;49.956;20.130;2024-02-14T09:55:15;3.97;;;1.77;;
75012;SDS011;63567;49.956;20.130;2024-02-14T09:57:42;3.25;;;1.73;;
75012;SDS011;63567;49.956;20.130;2024-02-14T10:00:11;3.42;;;1.60;;
75012;SDS011;63567;49.956;20.130;2024-02-14T10:02:37;3.25;;;1.45;;
75012;SDS011;63567;49.956;20.130;2024-02-14T10:05:03;2.75;;;1.50;;
75012;SDS011;63567;49.956;20.130;2024-02-14T10:07:29;3.75;;;1.35;;
75012;SDS011;63567;49.956;20.130;2024-02-14T10:09:54;2.03;;;0.90;;
75012;SDS011;63567;49.956;20.130;2024-02-14T10:12:20;2.97;;;1.20;;
75012;SDS011;63567;49.956;20.130;2024-02-14T10:14:55;3.25;;;1.40;;
75012;SDS011;63567;49.956;20.130;2024-02-14T10:19:55;2.00;;;1.20;;
75012;SDS011;63567;49.956;20.130;2024-02-14T10:22:31;2.80;;;1.20;;
75012;SDS011;63567;49.956;20.130;2024-02-14T10:24:57;2.78;;;1.17;;
75012;SDS011;63567;49.956;20.130;2024-02-14T10:27:22;2.57;;;1.33;;
75012;SDS011;63567;49.956;20.130;2024-02-14T10:29:48;2.27;;;1.30;;
75012;SDS011;63567;49.956;20.130;2024-02-14T10:32:16;3.00;;;1.20;;
75012;SDS011;63567;49.956;20.130;2024-02-14T10:34:41;2.72;;;1.60;;
75012;SDS011;63567;49.956;20.130;2024-02-14T10:37:10;2.67;;;1.15;;
75012;SDS011;63567;49.956;20.130;2024-02-14T10:39:39;2.78;;;1.10;;
75012;SDS011;63567;49.956;20.130;2024-02-14T10:42:06;2.97;;;1.40;;
75012;SDS011;63567;49.956;20.130;2024-02-14T10:44:31;2.27;;;1.57;;
75012;SDS011;63567;49.956;20.130;2024-02-14T10:46:57;1.90;;;1.27;;
75012;SDS011;63567;49.956;20.130;2024-02-14T10:49:27;2.85;;;1.52;;
75012;SDS011;63567;49.956;20.130;2024-02-14T10:51:54;1.92;;;1.30;;
75012;SDS011;63567;49.956;20.130;2024-02-14T10:54:25;2.20;;;1.20;;
75012;SDS011;63567;49.956;20.130;2024-02-14T10:56:52;2.38;;;1.60;;
75012;SDS011;63567;49.956;20.130;2024-02-14T10:59:23;2.05;;;1.33;;
75012;SDS011;63567;49.956;20.130;2024-02-14T11:01:50;2.92;;;1.50;;
75012;SDS011;63567;49.956;20.130;2024-02-14T11:04:16;2.15;;;0.90;;
75012;SDS011;63567;49.956;20.130;2024-02-14T11:06:52;3.38;;;1.40;;
75012;SDS011;63567;49.956;20.130;2024-02-14T11:09:31;3.03;;;1.40;;
75012;SDS011;63567;49.956;20.130;2024-02-14T11:12:08;3.17;;;1.42;;
75012;SDS011;63567;49.956;20.130;2024-02-14T11:14:35;3.05;;;1.35;;
75012;SDS011;63567;49.956;20.130;2024-02-14T11:17:02;1.55;;;0.90;;
75012;SDS011;63567;49.956;20.130;2024-02-14T11:19:31;2.45;;;1.50;;
75012;SDS011;63567;49.956;20.130;2024-02-14T11:22:09;1.95;;;1.25;;
75012;SDS011;63567;49.956;20.130;2024-02-14T11:24:36;2.35;;;1.60;;
75012;SDS011;63567;49.956;20.130;2024-02-14T11:27:02;1.60;;;1.17;;
75012;SDS011;63567;49.956;20.130;2024-02-14T11:29:30;2.60;;;1.35;;
75012;SDS011;63567;49.956;20.130;2024-02-14T11:31:59;2.80;;;1.42;;
75012;SDS011;63567;49.956;20.130;2024-02-14T11:34:25;2.22;;;1.33;;
75012;SDS011;63567;49.956;20.130;2024-02-14T11:36:51;2.88;;;1.48;;
75012;SDS011;63567;49.956;20.130;2024-02-14T11:39:16;2.00;;;1.48;;
75012;SDS011;63567;49.956;20.130;2024-02-14T11:41:41;2.57;;;1.83;;
75012;SDS011;63567;49.956;20.130;2024-02-14T11:44:07;2.65;;;1.60;;
75012;SDS011;63567;49.956;20.130;2024-02-14T11:46:33;1.92;;;1.50;;
75012;SDS011;63567;49.956;20.130;2024-02-14T11:49:00;2.67;;;1.35;;
75012;SDS011;63567;49.956;20.130;2024-02-14T11:51:30;2.65;;;0.98;;
75012;SDS011;63567;49.956;20.130;2024-02-14T11:53:57;2.17;;;1.58;;
75012;SDS011;63567;49.956;20.130;2024-02-14T11:56:32;2.30;;;1.80;;
75012;SDS011;63567;49.956;20.130;2024-02-14T11:58:59;2.95;;;1.95;;
75012;SDS011;63567;49.956;20.130;2024-02-14T12:01:25;3.00;;;2.17;;
75012;SDS011;63567;49.956;20.130;2024-02-14T12:03:51;2.47;;;1.80;;
75012;SDS011;63567;49.956;20.130;2024-02-14T12:06:17;2.80;;;2.60;;
75012;SDS011;63567;49.956;20.130;2024-02-14T12:08:42;2.85;;;1.63;;
75012;SDS011;63567;49.956;20.130;2024-02-14T12:11:08;2.47;;;2.08;;
75012;SDS011;63567;49.956;20.130;2024-02-14T12:13:33;3.27;;;1.83;;
75012;SDS011;63567;49.956;20.130;2024-02-14T12:16:02;2.25;;;1.75;;
75012;SDS011;63567;49.956;20.130;2024-02-14T12:18:28;3.10;;;1.27;;
75012;SDS011;63567;49.956;20.130;2024-02-14T12:21:02;2.17;;;1.97;;
75012;SDS011;63567;49.956;20.130;2024-02-14T12:23:28;3.05;;;2.15;;
75012;SDS011;63567;49.956;20.130;2024-02-14T12:25:54;2.63;;;2.10;;
75012;SDS011;63567;49.956;20.130;2024-02-14T12:28:28;2.17;;;1.70;;
75012;SDS011;63567;49.956;20.130;2024-02-14T12:30:55;3.33;;;2.28;;
75012;SDS011;63567;49.956;20.130;2024-02-14T12:33:27;2.90;;;1.90;;
75012;SDS011;63567;49.956;20.130;2024-02-14T12:35:55;2.88;;;2.20;;
75012;SDS011;63567;49.956;20.130;2024-02-14T12:38:22;2.40;;;2.00;;
75012;SDS011;63567;49.956;20.130;2024-02-14T12:40:48;2.65;;;2.45;;
75012;SDS011;63567;49.956;20.130;2024-02-14T12:43:14;2.83;;;2.20;;
75012;SDS011;63567;49.956;20.130;2024-02-14T12:45:43;2.53;;;1.85;;
75012;SDS011;63567;49.956;20.130;2024-02-14T12:48:09;2.58;;;2.30;;
75012;SDS011;63567;49.956;20.130;2024-02-14T12:50:35;2.80;;;2.60;;
75012;SDS011;63567;49.956;20.130;2024-02-14T12:53:02;2.65;;;2.25;;
75012;SDS011;63567;49.956;20.130;2024-02-14T12:55:28;3.00;;;2.15;;
75012;SDS011;63567;49.956;20.130;2024-02-14T12:57:54;2.30;;;2.10;;
75012;SDS011;63567;49.956;20.130;2024-02-14T13:00:20;2.50;;;2.30;;
75012;SDS011;63567;49.956;20.130;2024-02-14T13:02:47;2.92;;;2.15;;
75012;SDS011;63567;49.956;20.130;2024-02-14T13:05:13;2.47;;;2.28;;
75012;SDS011;63567;49.956;20.130;2024-02-14T13:07:38;2.57;;;2.37;;
75012;SDS011;63567;49.956;20.130;2024-02-14T13:10:03;2.70;;;2.37;;
75012;SDS011;63567;49.956;20.130;2024-02-14T13:12:29;3.17;;;2.88;;
75012;SDS011;63567;49.956;20.130;2024-02-14T13:14:54;2.80;;;2.47;;
75012;SDS011;63567;49.956;20.130;2024-02-14T13:17:20;3.05;;;2.85;;
75012;SDS011;63567;49.956;20.130;2024-02-14T13:19:45;3.10;;;2.30;;
75012;SDS011;63567;49.956;20.130;2024-02-14T13:22:10;2.85;;;2.33;;
75012;SDS011;63567;49.956;20.130;2024-02-14T13:24:36;3.40;;;2.67;;
75012;SDS011;63567;49.956;20.130;2024-02-14T13:27:01;3.23;;;2.60;;
75012;SDS011;63567;49.956;20.130;2024-02-14T13:29:26;4.00;;;3.70;;
75012;SDS011;63567;49.956;20.130;2024-02-14T13:31:53;3.38;;;3.08;;
75012;SDS011;63567;49.956;20.130;2024-02-14T13:34:18;3.47;;;3.27;;
75012;SDS011;63567;49.956;20.130;2024-02-14T13:36:45;2.50;;;1.50;;
75012;SDS011;63567;49.956;20.130;2024-02-14T13:39:11;2.60;;;2.40;;
75012;SDS011;63567;49.956;20.130;2024-02-14T13:41:37;3.33;;;2.80;;
75012;SDS011;63567;49.956;20.130;2024-02-14T13:44:03;3.08;;;2.78;;
75012;SDS011;63567;49.956;20.130;2024-02-14T13:46:29;2.28;;;1.30;;
75012;SDS011;63567;49.956;20.130;2024-02-14T13:48:54;2.87;;;2.20;;
75012;SDS011;63567;49.956;20.130;2024-02-14T13:51:20;3.17;;;2.70;;
75012;SDS011;63567;49.956;20.130;2024-02-14T13:53:45;3.38;;;2.53;;
75012;SDS011;63567;49.956;20.130;2024-02-14T13:56:10;3.47;;;2.73;;
75012;SDS011;63567;49.956;20.130;2024-02-14T13:58:36;2.97;;;2.67;;
75012;SDS011;63567;49.956;20.130;2024-02-14T14:01:03;3.53;;;3.03;;
75012;SDS011;63567;49.956;20.130;2024-02-14T14:03:29;3.58;;;3.00;;
75012;SDS011;63567;49.956;20.130;2024-02-14T14:05:54;2.70;;;2.50;;
75012;SDS011;63567;49.956;20.130;2024-02-14T14:08:21;2.90;;;2.60;;
75012;SDS011;63567;49.956;20.130;2024-02-14T14:10:47;3.08;;;2.75;;
75012;SDS011;63567;49.956;20.130;2024-02-14T14:13:12;2.83;;;2.57;;
75012;SDS011;63567;49.956;20.130;2024-02-14T14:15:38;2.78;;;2.33;;
75012;SDS011;63567;49.956;20.130;2024-02-14T14:18:05;3.35;;;2.85;;
75012;SDS011;63567;49.956;20.130;2024-02-14T14:20:33;2.47;;;2.10;;
75012;SDS011;63567;49.956;20.130;2024-02-14T14:22:58;3.70;;;3.33;;
75012;SDS011;63567;49.956;20.130;2024-02-14T14:25:24;3.08;;;2.58;;